Time;durP1;ratioP1;P1;durP2;ratioP2;P2;SDS_P1;SDS_P2;PMS_P1;PMS_P2;Temp;Humidity;BMP_temperature;BMP_pressure;BME280_temperature;BME280_humidity;BME280_pressure;Samples;Min_cycle;Max_cycle;Signal;HPM_P1;HPM_P2
2022/04/25 00:02:02;;;;;;;0.00;0.00;;;;;;;;;;5069998;28;20025;-61
2022/04/25 00:04:27;;;;;;;0.00;0.00;;;;;;;;;;5070483;28;20025;-61
2022/04/25 00:06:52;;;;;;;0.00;0.00;;;;;;;;;;5070693;28;20025;-62
2022/04/25 00:09:17;;;;;;;0.00;0.00;;;;;;;;;;5071621;28;20133;-62
2022/04/25 00:11:43;;;;;;;0.10;0.10;;;;;;;;;;5070548;28;20031;-61
2022/04/25 00:14:08;;;;;;;0.00;0.00;;;;;;;;;;5070254;28;20069;-62
2022/04/25 00:16:33;;;;;;;0.00;0.00;;;;;;;;;;5071301;28;20089;-62
2022/04/25 00:19:00;;;;;;;0.00;0.00;;;;;;;;;;5070685;28;20020;-61
2022/04/25 00:21:25;;;;;;;0.00;0.00;;;;;;;;;;5070881;28;20031;-61
2022/04/25 00:23:51;;;;;;;0.10;0.10;;;;;;;;;;5069832;28;20036;-62
2022/04/25 00:26:16;;;;;;;0.00;0.00;;;;;;;;;;5069576;28;20040;-61
2022/04/25 00:28:41;;;;;;;0.00;0.00;;;;;;;;;;5047944;28;20174;-62
2022/04/25 00:31:07;;;;;;;0.00;0.00;;;;;;;;;;5071293;28;20111;-62
2022/04/25 00:33:32;;;;;;;0.00;0.00;;;;;;;;;;5069990;28;20066;-62
2022/04/25 00:35:58;;;;;;;0.00;0.00;;;;;;;;;;5070051;28;20035;-62
2022/04/25 00:38:23;;;;;;;0.00;0.00;;;;;;;;;;5066749;28;20016;-59
2022/04/25 00:40:48;;;;;;;0.43;0.43;;;;;;;;;;5070286;28;20138;-60
2022/04/25 00:43:14;;;;;;;0.00;0.00;;;;;;;;;;5072591;28;20036;-60
2022/04/25 00:45:39;;;;;;;0.00;0.00;;;;;;;;;;5069470;28;20030;-62
2022/04/25 00:48:04;;;;;;;0.00;0.00;;;;;;;;;;5070704;28;20020;-62
2022/04/25 00:50:30;;;;;;;0.00;0.00;;;;;;;;;;5070643;28;21681;-62
2022/04/25 00:52:55;;;;;;;0.43;0.30;;;;;;;;;;5069330;28;20064;-61
2022/04/25 00:55:21;;;;;;;1.25;1.25;;;;;;;;;;5068627;28;20779;-61
2022/04/25 00:57:46;;;;;;;0.55;0.25;;;;;;;;;;5070090;28;20034;-61
2022/04/25 01:00:12;;;;;;;2.25;1.33;;;;;;;;;;5070360;28;20099;-61
2022/04/25 01:02:38;;;;;;;0.35;0.35;;;;;;;;;;5069727;28;20016;-61
2022/04/25 01:05:07;;;;;;;0.55;0.55;;;;;;;;;;5069743;28;20070;-61
2022/04/25 01:07:36;;;;;;;0.60;0.60;;;;;;;;;;5068727;28;20028;-61
2022/04/25 01:10:06;;;;;;;0.28;0.28;;;;;;;;;;5070722;28;20266;-62
2022/04/25 01:12:31;;;;;;;0.00;0.00;;;;;;;;;;5069889;28;20036;-62
2022/04/25 01:14:57;;;;;;;0.00;0.00;;;;;;;;;;5069606;28;20446;-62
2022/04/25 01:17:22;;;;;;;1.15;1.15;;;;;;;;;;5070919;28;20017;-61
2022/04/25 01:19:47;;;;;;;0.00;0.00;;;;;;;;;;5070559;28;20024;-61
2022/04/25 01:22:14;;;;;;;0.00;0.00;;;;;;;;;;5069545;28;20036;-63
2022/04/25 01:27:24;;;;;;;0.00;0.00;;;;;;;;;;5069938;28;20102;-61
2022/04/25 01:29:51;;;;;;;0.00;0.00;;;;;;;;;;5068969;28;20403;-61
2022/04/25 01:32:16;;;;;;;0.00;0.00;;;;;;;;;;5066789;28;20024;-61
2022/04/25 01:34:42;;;;;;;0.00;0.00;;;;;;;;;;5065575;28;20062;-61
2022/04/25 01:37:08;;;;;;;0.15;0.15;;;;;;;;;;5070065;28;20487;-61
2022/04/25 01:39:47;;;;;;;0.00;0.00;;;;;;;;;;5071326;28;20020;-61
2022/04/25 01:42:13;;;;;;;4.63;4.43;;;;;;;;;;5051353;28;20013;-60
2022/04/25 01:44:39;;;;;;;0.30;0.30;;;;;;;;;;5070288;28;20017;-61
2022/04/25 01:47:05;;;;;;;0.38;0.38;;;;;;;;;;5070845;28;20028;-61
2022/04/25 01:49:31;;;;;;;0.00;0.00;;;;;;;;;;5066681;28;20365;-61
2022/04/25 01:51:57;;;;;;;0.00;0.00;;;;;;;;;;5061067;28;20118;-61
2022/04/25 01:54:24;;;;;;;0.00;0.00;;;;;;;;;;5068741;28;20016;-60
2022/04/25 01:56:49;;;;;;;0.00;0.00;;;;;;;;;;5064956;28;20075;-60
2022/04/25 01:59:14;;;;;;;0.00;0.00;;;;;;;;;;5068838;28;20020;-61
2022/04/25 02:01:40;;;;;;;0.00;0.00;;;;;;;;;;5069743;28;20036;-62
2022/04/25 02:04:05;;;;;;;0.00;0.00;;;;;;;;;;5068486;28;20017;-61
2022/04/25 02:06:30;;;;;;;1.17;1.17;;;;;;;;;;5064770;28;20177;-61
2022/04/25 02:08:55;;;;;;;0.00;0.00;;;;;;;;;;5067730;28;20615;-61
2022/04/25 02:11:21;;;;;;;0.00;0.00;;;;;;;;;;5068739;28;20439;-61
2022/04/25 02:13:47;;;;;;;0.00;0.00;;;;;;;;;;5067234;28;20028;-61
2022/04/25 02:16:13;;;;;;;0.32;0.32;;;;;;;;;;5069184;28;20086;-61
2022/04/25 02:18:40;;;;;;;0.00;0.00;;;;;;;;;;5068922;28;20016;-60
2022/04/25 02:21:05;;;;;;;0.00;0.00;;;;;;;;;;5067388;28;20027;-61
2022/04/25 02:23:31;;;;;;;0.60;0.60;;;;;;;;;;5065250;28;20537;-61
2022/04/25 02:25:56;;;;;;;0.00;0.00;;;;;;;;;;5068761;28;20027;-61
2022/04/25 02:28:21;;;;;;;1.35;1.35;;;;;;;;;;5068707;28;20466;-61
2022/04/25 02:30:47;;;;;;;0.00;0.00;;;;;;;;;;5068684;28;20017;-61
2022/04/25 02:33:12;;;;;;;0.00;0.00;;;;;;;;;;5068622;28;20070;-62
2022/04/25 02:35:37;;;;;;;0.10;0.10;;;;;;;;;;5067598;28;20066;-61
2022/04/25 02:38:02;;;;;;;0.15;0.15;;;;;;;;;;5069697;28;20025;-60
2022/04/25 02:40:28;;;;;;;0.00;0.00;;;;;;;;;;5068436;28;20020;-60
2022/04/25 02:42:53;;;;;;;0.00;0.00;;;;;;;;;;5047199;28;20112;-61
2022/04/25 02:45:18;;;;;;;0.00;0.00;;;;;;;;;;5067710;28;20048;-61
2022/04/25 02:47:44;;;;;;;0.00;0.00;;;;;;;;;;5068336;28;20461;-60
2022/04/25 02:50:09;;;;;;;0.15;0.15;;;;;;;;;;5066673;28;21936;-61
2022/04/25 02:52:34;;;;;;;0.00;0.00;;;;;;;;;;5066766;28;20465;-61
2022/04/25 02:55:00;;;;;;;0.00;0.00;;;;;;;;;;5055336;28;20044;-61
2022/04/25 02:57:25;;;;;;;0.00;0.00;;;;;;;;;;5068166;28;20063;-61
2022/04/25 02:59:50;;;;;;;0.65;0.65;;;;;;;;;;5068489;28;20116;-61
2022/04/25 03:02:15;;;;;;;0.00;0.00;;;;;;;;;;5067953;28;20425;-60
2022/04/25 03:04:41;;;;;;;0.10;0.10;;;;;;;;;;5066346;28;20056;-60
2022/04/25 03:07:06;;;;;;;0.00;0.00;;;;;;;;;;5067252;28;20521;-60
2022/04/25 03:09:31;;;;;;;0.00;0.00;;;;;;;;;;5066762;28;20024;-60
2022/04/25 03:11:57;;;;;;;0.00;0.00;;;;;;;;;;5069291;28;20024;-60
2022/04/25 03:14:23;;;;;;;0.00;0.00;;;;;;;;;;5068303;28;20029;-60
2022/04/25 03:16:49;;;;;;;0.00;0.00;;;;;;;;;;5067666;28;20070;-61
2022/04/25 03:19:15;;;;;;;0.52;0.52;;;;;;;;;;5069249;28;20021;-61
2022/04/25 03:21:41;;;;;;;1.55;1.55;;;;;;;;;;5072395;28;20024;-61
2022/04/25 03:24:07;;;;;;;0.00;0.00;;;;;;;;;;5069021;28;20039;-59
2022/04/25 03:26:32;;;;;;;0.00;0.00;;;;;;;;;;5070969;28;20041;-59
2022/04/25 03:28:57;;;;;;;0.43;0.43;;;;;;;;;;5072182;28;20288;-60
2022/04/25 03:31:22;;;;;;;0.00;0.00;;;;;;;;;;5071322;28;20048;-60
2022/04/25 03:33:47;;;;;;;0.13;0.13;;;;;;;;;;5070070;28;20511;-60
2022/04/25 03:36:14;;;;;;;2.30;2.20;;;;;;;;;;5072041;28;20058;-61
2022/04/25 03:38:42;;;;;;;0.22;0.22;;;;;;;;;;5070591;28;20043;-61
2022/04/25 03:41:07;;;;;;;0.00;0.00;;;;;;;;;;5055456;28;20021;-61
2022/04/25 03:43:34;;;;;;;0.22;0.22;;;;;;;;;;5069567;28;20035;-61
2022/04/25 03:45:59;;;;;;;0.30;0.30;;;;;;;;;;5071445;28;20063;-61
2022/04/25 03:48:24;;;;;;;0.00;0.00;;;;;;;;;;5071113;28;20016;-60
2022/04/25 03:50:50;;;;;;;0.00;0.00;;;;;;;;;;5071121;28;20043;-61
2022/04/25 03:53:15;;;;;;;0.00;0.00;;;;;;;;;;5071610;28;20509;-61
2022/04/25 03:58:25;;;;;;;0.60;0.60;;;;;;;;;;5071543;28;20074;-61
2022/04/25 04:00:50;;;;;;;0.00;0.00;;;;;;;;;;5071496;28;20052;-61
2022/04/25 04:03:17;;;;;;;0.00;0.00;;;;;;;;;;5071387;28;20808;-61
2022/04/25 04:05:42;;;;;;;0.00;0.00;;;;;;;;;;5070831;28;20020;-61
2022/04/25 04:08:08;;;;;;;0.00;0.00;;;;;;;;;;5071040;28;20388;-60
2022/04/25 04:10:34;;;;;;;0.20;0.20;;;;;;;;;;5071108;28;20378;-61
2022/04/25 04:13:00;;;;;;;0.00;0.00;;;;;;;;;;5070158;28;20086;-62
2022/04/25 04:15:25;;;;;;;0.00;0.00;;;;;;;;;;5070573;28;20107;-62
2022/04/25 04:17:51;;;;;;;0.00;0.00;;;;;;;;;;5069787;28;20123;-62
2022/04/25 04:20:16;;;;;;;2.63;0.63;;;;;;;;;;5069757;28;20453;-62
2022/04/25 04:22:41;;;;;;;0.00;0.00;;;;;;;;;;5071003;28;20027;-62
2022/04/25 04:25:08;;;;;;;1.45;1.20;;;;;;;;;;5070252;28;20181;-61
2022/04/25 04:27:33;;;;;;;0.17;0.17;;;;;;;;;;5066871;28;20067;-61
2022/04/25 04:30:00;;;;;;;0.10;0.10;;;;;;;;;;5070202;28;20700;-62
2022/04/25 04:32:29;;;;;;;0.57;0.55;;;;;;;;;;5069463;28;20028;-61
2022/04/25 04:34:54;;;;;;;0.17;0.17;;;;;;;;;;5069643;28;20074;-62
2022/04/25 04:37:19;;;;;;;0.00;0.00;;;;;;;;;;5070749;28;20366;-60
2022/04/25 04:39:44;;;;;;;0.20;0.20;;;;;;;;;;5068945;28;20154;-62
2022/04/25 04:42:09;;;;;;;0.00;0.00;;;;;;;;;;5068892;28;20013;-60
2022/04/25 04:44:36;;;;;;;0.08;0.08;;;;;;;;;;5068153;28;20377;-61
2022/04/25 04:47:01;;;;;;;0.00;0.00;;;;;;;;;;5068226;28;20483;-61
2022/04/25 04:49:26;;;;;;;0.00;0.00;;;;;;;;;;5068003;28;20035;-63
2022/04/25 04:51:51;;;;;;;0.00;0.00;;;;;;;;;;5067456;28;20543;-61
2022/04/25 04:54:17;;;;;;;0.00;0.00;;;;;;;;;;5070628;28;20054;-61
2022/04/25 04:56:42;;;;;;;1.08;0.52;;;;;;;;;;5070236;28;20389;-62
2022/04/25 04:59:07;;;;;;;0.00;0.00;;;;;;;;;;5069584;28;20060;-61
2022/04/25 05:01:32;;;;;;;0.00;0.00;;;;;;;;;;5069941;28;20493;-62
2022/04/25 05:03:58;;;;;;;0.00;0.00;;;;;;;;;;5046224;28;20100;-61
2022/04/25 05:06:24;;;;;;;0.00;0.00;;;;;;;;;;5069572;28;20040;-61
2022/04/25 05:08:49;;;;;;;0.63;0.63;;;;;;;;;;5069472;28;20072;-60
2022/04/25 05:11:15;;;;;;;0.00;0.00;;;;;;;;;;5069875;28;20028;-62
2022/04/25 05:13:40;;;;;;;0.00;0.00;;;;;;;;;;5068000;28;20481;-61
2022/04/25 05:16:06;;;;;;;0.00;0.00;;;;;;;;;;5067088;28;20020;-61
2022/04/25 05:18:33;;;;;;;0.00;0.00;;;;;;;;;;5067657;28;20107;-60
2022/04/25 05:20:58;;;;;;;0.00;0.00;;;;;;;;;;5069216;28;20100;-61
2022/04/25 05:23:24;;;;;;;1.20;1.20;;;;;;;;;;5068996;28;20163;-61
2022/04/25 05:25:49;;;;;;;0.17;0.17;;;;;;;;;;5069855;28;20024;-61
2022/04/25 05:28:15;;;;;;;0.00;0.00;;;;;;;;;;5068715;28;20048;-60
2022/04/25 05:30:40;;;;;;;0.95;0.95;;;;;;;;;;5070065;28;20036;-60
2022/04/25 05:33:05;;;;;;;0.32;0.32;;;;;;;;;;5069023;28;20025;-61
2022/04/25 05:35:33;;;;;;;0.00;0.00;;;;;;;;;;5069742;28;20024;-61
2022/04/25 05:37:58;;;;;;;0.20;0.20;;;;;;;;;;5067908;28;20024;-61
2022/04/25 05:40:25;;;;;;;0.65;0.65;;;;;;;;;;5069511;28;20460;-62
2022/04/25 05:42:51;;;;;;;0.00;0.00;;;;;;;;;;5066531;28;20381;-61
2022/04/25 05:45:17;;;;;;;0.00;0.00;;;;;;;;;;5069303;28;20040;-60
2022/04/25 05:47:43;;;;;;;0.00;0.00;;;;;;;;;;5069431;28;20020;-61
2022/04/25 05:52:54;;;;;;;0.08;0.08;;;;;;;;;;5066442;28;20503;-61
2022/04/25 05:55:19;;;;;;;0.10;0.10;;;;;;;;;;5066304;28;20530;-61
2022/04/25 05:57:45;;;;;;;2.45;1.40;;;;;;;;;;5067248;28;20226;-61
2022/04/25 06:00:11;;;;;;;0.00;0.00;;;;;;;;;;5069894;28;20024;-63
2022/04/25 06:02:37;;;;;;;0.00;0.00;;;;;;;;;;5066113;28;20024;-67
2022/04/25 06:05:02;;;;;;;0.00;0.00;;;;;;;;;;5068495;28;20419;-63
2022/04/25 06:07:28;;;;;;;0.00;0.00;;;;;;;;;;5048227;28;20078;-64
2022/04/25 06:09:53;;;;;;;0.00;0.00;;;;;;;;;;5067817;28;20107;-64
2022/04/25 06:12:18;;;;;;;0.00;0.00;;;;;;;;;;5066589;28;20017;-64
2022/04/25 06:14:44;;;;;;;0.00;0.00;;;;;;;;;;5066156;28;20072;-63
2022/04/25 06:17:13;;;;;;;0.00;0.00;;;;;;;;;;5067675;28;20020;-64
2022/04/25 06:19:38;;;;;;;0.00;0.00;;;;;;;;;;5068635;28;20028;-63
2022/04/25 06:22:03;;;;;;;0.00;0.00;;;;;;;;;;5067620;28;20020;-64
2022/04/25 06:24:29;;;;;;;0.00;0.00;;;;;;;;;;5068718;28;20012;-64
2022/04/25 06:26:55;;;;;;;0.10;0.10;;;;;;;;;;5066636;28;20055;-63
2022/04/25 06:29:21;;;;;;;1.95;1.90;;;;;;;;;;5067656;28;20051;-64
2022/04/25 06:31:46;;;;;;;0.17;0.17;;;;;;;;;;5068124;28;20060;-64
2022/04/25 06:34:11;;;;;;;0.00;0.00;;;;;;;;;;5048727;28;20050;-64
2022/04/25 06:36:37;;;;;;;0.00;0.00;;;;;;;;;;5067764;28;20424;-64
2022/04/25 06:39:02;;;;;;;3.55;3.25;;;;;;;;;;5066487;28;20484;-65
2022/04/25 06:41:28;;;;;;;0.00;0.00;;;;;;;;;;5067508;28;20467;-64
2022/04/25 06:43:53;;;;;;;0.10;0.10;;;;;;;;;;5068097;28;20103;-65
2022/04/25 06:46:18;;;;;;;0.00;0.00;;;;;;;;;;5068424;28;20073;-66
2022/04/25 06:49:19;;;;;;;0.13;0.13;;;;;;;;;;5068468;28;20127;-66
2022/04/25 06:51:30;;;;;;;0.63;0.55;;;;;;;;;;5068622;28;20470;-68
2022/04/25 06:53:56;;;;;;;0.08;0.08;;;;;;;;;;5067284;28;20398;-67
2022/04/25 06:56:21;;;;;;;0.00;0.00;;;;;;;;;;5068320;28;20064;-64
2022/04/25 06:58:46;;;;;;;0.00;0.00;;;;;;;;;;5068435;28;20032;-66
2022/04/25 07:01:11;;;;;;;0.10;0.10;;;;;;;;;;5066659;28;20029;-66
2022/04/25 07:03:37;;;;;;;0.00;0.00;;;;;;;;;;5069211;28;20020;-66
2022/04/25 07:06:02;;;;;;;0.00;0.00;;;;;;;;;;5067618;28;20027;-67
2022/04/25 07:08:28;;;;;;;1.08;1.08;;;;;;;;;;5067868;28;20111;-67
2022/04/25 07:10:53;;;;;;;0.22;0.20;;;;;;;;;;5066172;28;20029;-65
2022/04/25 07:13:18;;;;;;;0.00;0.00;;;;;;;;;;5068191;28;20508;-66
2022/04/25 07:15:43;;;;;;;0.00;0.00;;;;;;;;;;5067968;28;20210;-65
2022/04/25 07:18:09;;;;;;;0.30;0.30;;;;;;;;;;5067865;28;20020;-64
2022/04/25 07:20:34;;;;;;;0.30;0.30;;;;;;;;;;5067250;28;20105;-66
2022/04/25 07:31:13;;;;;;;0.00;0.00;;;;;;;;;;5064371;28;20074;-65
2022/04/25 07:33:43;;;;;;;0.00;0.00;;;;;;;;;;5067796;28;20016;-65
2022/04/25 07:36:08;;;;;;;0.22;0.22;;;;;;;;;;5067013;28;20012;-64
2022/04/25 07:38:33;;;;;;;0.52;0.52;;;;;;;;;;5065621;28;20025;-65
2022/04/25 07:41:00;;;;;;;0.00;0.00;;;;;;;;;;5067590;28;20054;-65
2022/04/25 07:43:25;;;;;;;0.32;0.32;;;;;;;;;;5067815;28;20090;-65
2022/04/25 07:45:51;;;;;;;1.30;0.75;;;;;;;;;;5067865;28;20024;-65
2022/04/25 07:48:16;;;;;;;1.35;1.35;;;;;;;;;;5051517;28;20052;-65
2022/04/25 07:50:44;;;;;;;0.00;0.00;;;;;;;;;;5064358;28;20028;-65
2022/04/25 07:53:09;;;;;;;23.92;22.52;;;;;;;;;;5066799;28;20025;-65
2022/04/25 07:55:34;;;;;;;0.00;0.00;;;;;;;;;;5067550;28;20035;-66
2022/04/25 07:58:00;;;;;;;0.15;0.15;;;;;;;;;;5066959;28;20524;-64
2022/04/25 08:00:27;;;;;;;0.00;0.00;;;;;;;;;;5066752;28;20017;-64
2022/04/25 08:02:52;;;;;;;0.00;0.00;;;;;;;;;;5067472;28;20043;-65
2022/04/25 08:05:17;;;;;;;0.05;0.05;;;;;;;;;;5067228;28;20020;-65
2022/04/25 08:07:42;;;;;;;1.48;1.38;;;;;;;;;;5068179;28;21607;-66
2022/04/25 08:10:08;;;;;;;0.98;0.45;;;;;;;;;;5070495;28;20080;-65
2022/04/25 08:18:01;;;;;;;0.43;0.43;;;;;;;;;;5069721;28;20151;-65
2022/04/25 08:20:32;;;;;;;0.05;0.05;;;;;;;;;;5069351;28;20107;-65
2022/04/25 08:22:57;;;;;;;0.00;0.00;;;;;;;;;;5068556;28;20481;-65
2022/04/25 08:25:23;;;;;;;2.63;2.40;;;;;;;;;;5071735;28;20110;-65
2022/04/25 08:27:48;;;;;;;0.38;0.38;;;;;;;;;;5069211;28;20072;-65
2022/04/25 08:30:14;;;;;;;0.00;0.00;;;;;;;;;;5068795;28;20031;-65
2022/04/25 08:32:39;;;;;;;0.00;0.00;;;;;;;;;;5070319;28;20031;-65
2022/04/25 08:35:05;;;;;;;0.00;0.00;;;;;;;;;;5069545;28;20020;-65
2022/04/25 08:37:30;;;;;;;0.43;0.43;;;;;;;;;;5068439;28;20036;-66
2022/04/25 08:39:55;;;;;;;0.00;0.00;;;;;;;;;;5069220;28;20016;-66
2022/04/25 08:42:20;;;;;;;1.55;0.30;;;;;;;;;;5070132;28;20039;-64
2022/04/25 08:44:49;;;;;;;1.13;1.00;;;;;;;;;;5071734;28;20025;-65
2022/04/25 08:47:15;;;;;;;0.30;0.22;;;;;;;;;;5069395;28;20029;-65
2022/04/25 08:49:41;;;;;;;0.00;0.00;;;;;;;;;;5068890;28;20029;-65
2022/04/25 08:52:07;;;;;;;1.63;0.68;;;;;;;;;;5069296;28;20016;-65
2022/04/25 08:54:33;;;;;;;0.00;0.00;;;;;;;;;;5070113;28;20107;-65
2022/04/25 08:56:59;;;;;;;1.98;1.88;;;;;;;;;;5069114;28;20032;-65
2022/04/25 08:59:25;;;;;;;0.00;0.00;;;;;;;;;;5068017;28;20162;-65
2022/04/25 09:01:50;;;;;;;0.00;0.00;;;;;;;;;;5067489;28;20166;-66
2022/04/25 09:04:16;;;;;;;3.85;0.52;;;;;;;;;;5070248;28;20463;-65
2022/04/25 09:06:41;;;;;;;0.75;0.75;;;;;;;;;;5068768;28;20586;-66
2022/04/25 09:09:07;;;;;;;0.00;0.00;;;;;;;;;;5067241;28;20443;-66
2022/04/25 09:14:16;;;;;;;0.45;0.45;;;;;;;;;;5069439;28;20039;-64
2022/04/25 09:16:41;;;;;;;0.00;0.00;;;;;;;;;;5068590;28;20029;-65
2022/04/25 09:19:07;;;;;;;0.00;0.00;;;;;;;;;;5052108;28;20035;-66
2022/04/25 09:21:39;;;;;;;0.80;0.80;;;;;;;;;;5068927;28;20031;-66
2022/04/25 09:24:18;;;;;;;0.25;0.25;;;;;;;;;;5070099;28;20159;-66
2022/04/25 09:26:44;;;;;;;0.30;0.05;;;;;;;;;;5068897;28;20041;-65
2022/04/25 09:29:11;;;;;;;0.00;0.00;;;;;;;;;;5067712;28;20042;-65
2022/04/25 09:31:46;;;;;;;0.00;0.00;;;;;;;;;;5068161;28;20025;-65
2022/04/25 09:34:16;;;;;;;0.00;0.00;;;;;;;;;;5066287;28;20096;-65
2022/04/25 09:36:47;;;;;;;0.22;0.22;;;;;;;;;;5068398;28;20023;-65
2022/04/25 09:39:30;;;;;;;0.00;0.00;;;;;;;;;;5067555;28;20059;-65
2022/04/25 09:41:55;;;;;;;0.47;0.47;;;;;;;;;;5068205;28;20024;-66
2022/04/25 09:44:20;;;;;;;0.00;0.00;;;;;;;;;;5069088;28;20021;-65
2022/04/25 09:46:46;;;;;;;0.00;0.00;;;;;;;;;;5069239;28;20077;-67
2022/04/25 09:49:18;;;;;;;1.50;1.10;;;;;;;;;;5067599;28;20124;-68
2022/04/25 09:51:58;;;;;;;3.10;1.55;;;;;;;;;;5067308;28;20021;-67
2022/04/25 09:54:23;;;;;;;0.10;0.10;;;;;;;;;;5068578;28;20023;-67
2022/04/25 09:56:49;;;;;;;0.15;0.15;;;;;;;;;;5068421;28;20485;-68
2022/04/25 09:59:15;;;;;;;0.10;0.10;;;;;;;;;;5067514;28;20028;-68
2022/04/25 10:01:43;;;;;;;1.45;1.45;;;;;;;;;;5064837;28;20297;-68
2022/04/25 10:04:27;;;;;;;0.63;0.63;;;;;;;;;;5048026;28;20024;-69
2022/04/25 10:06:52;;;;;;;0.00;0.00;;;;;;;;;;5065686;28;20036;-69
2022/04/25 10:09:19;;;;;;;0.00;0.00;;;;;;;;;;5066887;28;20021;-68
2022/04/25 10:11:44;;;;;;;0.00;0.00;;;;;;;;;;5067435;28;20033;-66
2022/04/25 10:14:10;;;;;;;0.00;0.00;;;;;;;;;;5066942;28;20102;-68
2022/04/25 10:16:35;;;;;;;0.00;0.00;;;;;;;;;;5067219;28;20089;-68
2022/04/25 10:19:00;;;;;;;1.75;1.23;;;;;;;;;;5064983;28;20016;-68
2022/04/25 10:21:29;;;;;;;1.55;1.25;;;;;;;;;;5066780;28;20028;-67
2022/04/25 10:23:55;;;;;;;0.00;0.00;;;;;;;;;;5066886;28;20063;-68
2022/04/25 10:26:25;;;;;;;2.38;1.10;;;;;;;;;;5066828;28;20024;-69
2022/04/25 10:28:54;;;;;;;0.57;0.57;;;;;;;;;;5065191;28;20035;-68
2022/04/25 10:31:30;;;;;;;0.00;0.00;;;;;;;;;;5065742;28;20119;-69
2022/04/25 10:33:58;;;;;;;0.00;0.00;;;;;;;;;;5067627;28;20257;-68
2022/04/25 10:36:38;;;;;;;0.00;0.00;;;;;;;;;;5069382;28;20016;-68
2022/04/25 10:39:10;;;;;;;0.00;0.00;;;;;;;;;;5064506;28;20070;-69
2022/04/25 10:44:19;;;;;;;0.28;0.28;;;;;;;;;;5067525;28;20389;-68
2022/04/25 10:47:03;;;;;;;2.33;2.22;;;;;;;;;;5066495;28;20028;-67
2022/04/25 10:49:31;;;;;;;0.17;0.17;;;;;;;;;;5064002;28;20385;-67
2022/04/25 10:51:56;;;;;;;0.00;0.00;;;;;;;;;;5065749;28;20025;-67
2022/04/25 10:54:23;;;;;;;0.00;0.00;;;;;;;;;;5067608;28;20429;-68
2022/04/25 10:57:07;;;;;;;0.73;0.73;;;;;;;;;;5066464;28;20496;-67
2022/04/25 10:59:32;;;;;;;0.00;0.00;;;;;;;;;;5067387;28;20150;-67
2022/04/25 11:01:57;;;;;;;0.32;0.32;;;;;;;;;;5065382;28;20115;-68
2022/04/25 11:04:23;;;;;;;0.65;0.65;;;;;;;;;;5066624;28;20526;-68
2022/04/25 11:06:48;;;;;;;0.00;0.00;;;;;;;;;;5064893;28;20057;-68
2022/04/25 11:09:32;;;;;;;0.57;0.57;;;;;;;;;;5065435;28;20020;-71
2022/04/25 11:11:57;;;;;;;0.00;0.00;;;;;;;;;;5067187;28;20103;-71
2022/04/25 11:14:23;;;;;;;0.00;0.00;;;;;;;;;;5068112;28;20108;-71
2022/04/25 11:17:24;;;;;;;0.10;0.10;;;;;;;;;;5067903;28;20036;-70
2022/04/25 11:19:54;;;;;;;0.15;0.15;;;;;;;;;;5024178;28;20033;-71
2022/04/25 11:22:38;;;;;;;3.30;2.63;;;;;;;;;;5058552;28;20043;-71
2022/04/25 11:25:22;;;;;;;0.50;0.50;;;;;;;;;;5047464;28;20025;-71
2022/04/25 11:28:08;;;;;;;0.85;0.85;;;;;;;;;;5067699;28;20111;-71
2022/04/25 11:30:34;;;;;;;0.68;0.68;;;;;;;;;;5066281;28;20021;-70
2022/04/25 11:33:06;;;;;;;0.10;0.10;;;;;;;;;;5067068;28;20027;-71
2022/04/25 11:35:32;;;;;;;0.00;0.00;;;;;;;;;;5067295;28;20032;-71
2022/04/25 11:37:57;;;;;;;0.00;0.00;;;;;;;;;;5067053;28;20444;-70
2022/04/25 11:40:23;;;;;;;2.95;2.65;;;;;;;;;;5066576;28;20059;-71
2022/04/25 11:42:48;;;;;;;1.02;1.02;;;;;;;;;;5071505;28;20033;-70
2022/04/25 11:45:14;;;;;;;2.83;1.95;;;;;;;;;;5071035;28;20023;-70
2022/04/25 11:47:39;;;;;;;0.40;0.40;;;;;;;;;;5071472;28;20060;-70
2022/04/25 11:50:07;;;;;;;0.00;0.00;;;;;;;;;;5069713;28;20350;-71
2022/04/25 11:52:32;;;;;;;0.00;0.00;;;;;;;;;;5071503;28;20450;-67
2022/04/25 11:54:57;;;;;;;0.73;0.73;;;;;;;;;;5068882;28;20099;-67
2022/04/25 11:57:24;;;;;;;0.85;0.85;;;;;;;;;;5069776;28;20025;-66
2022/04/25 11:59:54;;;;;;;0.43;0.43;;;;;;;;;;5070995;28;20388;-66
2022/04/25 12:02:20;;;;;;;0.00;0.00;;;;;;;;;;5070685;28;20028;-66
2022/04/25 12:04:46;;;;;;;0.17;0.17;;;;;;;;;;5071323;28;20027;-66
2022/04/25 12:07:11;;;;;;;0.45;0.45;;;;;;;;;;5070601;28;20457;-66
2022/04/25 12:17:53;;;;;;;1.00;0.98;;;;;;;;;;5069561;28;20034;-66
2022/04/25 12:20:27;;;;;;;1.70;1.60;;;;;;;;;;5070303;28;20120;-66
2022/04/25 12:22:54;;;;;;;2.97;2.75;;;;;;;;;;5071228;28;21468;-66
2022/04/25 12:25:20;;;;;;;0.70;0.70;;;;;;;;;;5070762;28;20419;-66
2022/04/25 12:28:02;;;;;;;0.73;0.65;;;;;;;;;;5049545;28;20102;-66
2022/04/25 12:30:28;;;;;;;0.85;0.85;;;;;;;;;;5069269;28;20074;-65
2022/04/25 12:33:09;;;;;;;0.00;0.00;;;;;;;;;;5072418;28;20040;-66
2022/04/25 12:35:38;;;;;;;1.23;1.20;;;;;;;;;;5070515;28;20047;-66
2022/04/25 12:38:04;;;;;;;0.85;0.85;;;;;;;;;;5070343;28;20473;-64
2022/04/25 12:40:29;;;;;;;0.00;0.00;;;;;;;;;;5069013;28;20032;-65
2022/04/25 12:42:55;;;;;;;1.83;1.67;;;;;;;;;;5069080;28;20490;-65
2022/04/25 12:45:23;;;;;;;3.90;3.70;;;;;;;;;;5068673;28;20090;-64
2022/04/25 12:47:55;;;;;;;1.55;0.88;;;;;;;;;;5070552;28;20041;-64
2022/04/25 12:50:39;;;;;;;0.00;0.00;;;;;;;;;;5070122;28;20107;-65
2022/04/25 12:53:04;;;;;;;0.00;0.00;;;;;;;;;;5069114;28;20111;-65
2022/04/25 12:55:48;;;;;;;0.00;0.00;;;;;;;;;;5070236;28;20580;-66
2022/04/25 12:58:15;;;;;;;2.33;1.98;;;;;;;;;;5067749;28;20031;-65
2022/04/25 13:00:44;;;;;;;5.07;1.98;;;;;;;;;;5070037;28;20046;-66
2022/04/25 13:03:10;;;;;;;0.85;0.85;;;;;;;;;;5069622;28;20373;-66
2022/04/25 13:05:36;;;;;;;1.15;1.15;;;;;;;;;;5068788;28;20029;-65
2022/04/25 13:08:01;;;;;;;0.00;0.00;;;;;;;;;;5069515;28;20043;-66
2022/04/25 13:10:26;;;;;;;0.00;0.00;;;;;;;;;;5069892;28;20105;-62
2022/04/25 13:12:55;;;;;;;0.25;0.25;;;;;;;;;;5066886;28;20024;-67
2022/04/25 13:15:22;;;;;;;0.00;0.00;;;;;;;;;;5067728;28;20149;-68
2022/04/25 13:17:58;;;;;;;0.22;0.13;;;;;;;;;;5069508;28;20032;-65
2022/04/25 13:20:25;;;;;;;0.15;0.15;;;;;;;;;;5069094;28;20020;-64
2022/04/25 13:22:50;;;;;;;0.00;0.00;;;;;;;;;;5068525;28;20025;-66
2022/04/25 13:25:19;;;;;;;0.60;0.60;;;;;;;;;;5067200;28;20024;-64
2022/04/25 13:27:44;;;;;;;0.93;0.93;;;;;;;;;;5046547;28;20040;-65
2022/04/25 13:30:12;;;;;;;0.00;0.00;;;;;;;;;;5069399;28;20039;-65
2022/04/25 13:32:37;;;;;;;0.60;0.60;;;;;;;;;;5069741;28;20056;-64
2022/04/25 13:35:03;;;;;;;0.43;0.43;;;;;;;;;;5067822;28;20453;-64
2022/04/25 13:37:31;;;;;;;0.00;0.00;;;;;;;;;;5065881;28;20044;-64
2022/04/25 13:39:57;;;;;;;0.40;0.40;;;;;;;;;;5068375;28;20552;-64
2022/04/25 13:42:22;;;;;;;1.48;1.38;;;;;;;;;;5068929;28;20047;-63
2022/04/25 13:44:47;;;;;;;0.60;0.60;;;;;;;;;;5067344;28;20074;-63
2022/04/25 13:47:13;;;;;;;0.00;0.00;;;;;;;;;;5066612;28;20048;-64
2022/04/25 13:49:38;;;;;;;0.00;0.00;;;;;;;;;;5067260;28;20071;-63
2022/04/25 13:52:04;;;;;;;0.50;0.50;;;;;;;;;;5067805;28;20016;-63
2022/04/25 13:54:29;;;;;;;1.48;1.38;;;;;;;;;;5067594;28;20052;-63
2022/04/25 13:56:55;;;;;;;0.20;0.20;;;;;;;;;;5068674;28;20727;-63
2022/04/25 13:59:21;;;;;;;2.33;0.32;;;;;;;;;;5068091;28;20013;-63
2022/04/25 14:01:46;;;;;;;2.25;2.20;;;;;;;;;;5045427;28;20045;-63
2022/04/25 14:04:11;;;;;;;0.68;0.68;;;;;;;;;;5066548;28;20473;-63
2022/04/25 14:06:37;;;;;;;0.17;0.17;;;;;;;;;;5066901;28;20021;-63
2022/04/25 14:09:02;;;;;;;0.00;0.00;;;;;;;;;;5067280;28;20055;-63
2022/04/25 14:11:29;;;;;;;0.30;0.30;;;;;;;;;;5068363;28;20028;-64
2022/04/25 14:13:55;;;;;;;0.30;0.30;;;;;;;;;;5067631;28;20097;-63
2022/04/25 14:16:20;;;;;;;0.00;0.00;;;;;;;;;;5068326;28;20020;-61
2022/04/25 14:18:46;;;;;;;0.73;0.73;;;;;;;;;;5068472;28;20081;-60
2022/04/25 14:21:11;;;;;;;1.58;1.42;;;;;;;;;;5067930;28;20020;-63
2022/04/25 14:23:36;;;;;;;0.00;0.00;;;;;;;;;;5067050;28;20032;-62
2022/04/25 14:26:02;;;;;;;1.33;1.25;;;;;;;;;;5067407;28;20044;-61
2022/04/25 14:28:28;;;;;;;1.70;1.60;;;;;;;;;;5068206;28;20041;-60
2022/04/25 14:30:53;;;;;;;0.80;0.75;;;;;;;;;;5069186;28;20788;-60
2022/04/25 14:33:19;;;;;;;1.42;1.33;;;;;;;;;;5067963;28;20111;-60
2022/04/25 14:35:44;;;;;;;3.35;1.63;;;;;;;;;;5067264;28;20016;-60
2022/04/25 14:38:10;;;;;;;0.90;0.90;;;;;;;;;;5067626;28;20388;-60
2022/04/25 14:40:35;;;;;;;0.50;0.50;;;;;;;;;;5067746;28;20023;-60
2022/04/25 14:43:00;;;;;;;1.05;0.95;;;;;;;;;;5067780;28;20016;-61
2022/04/25 14:45:27;;;;;;;0.08;0.03;;;;;;;;;;5067860;28;20024;-60
2022/04/25 14:47:52;;;;;;;0.20;0.20;;;;;;;;;;5068400;28;20489;-58
2022/04/25 14:55:47;;;;;;;0.60;0.60;;;;;;;;;;5065777;28;20039;-58
2022/04/25 14:58:15;;;;;;;0.45;0.45;;;;;;;;;;5067656;28;20082;-62
2022/04/25 15:00:41;;;;;;;0.85;0.85;;;;;;;;;;5068000;28;20518;-62
2022/04/25 15:03:07;;;;;;;0.55;0.55;;;;;;;;;;5065654;28;20108;-62
2022/04/25 15:05:36;;;;;;;0.40;0.40;;;;;;;;;;5069336;28;20158;-62
2022/04/25 15:08:01;;;;;;;0.00;0.00;;;;;;;;;;5067475;28;20024;-62
2022/04/25 15:10:26;;;;;;;0.22;0.22;;;;;;;;;;5066472;28;20032;-62
2022/04/25 15:12:51;;;;;;;1.95;0.68;;;;;;;;;;5067530;28;20028;-62
2022/04/25 15:15:17;;;;;;;0.10;0.10;;;;;;;;;;5067059;28;20028;-62
2022/04/25 15:17:43;;;;;;;0.10;0.10;;;;;;;;;;5071814;28;20032;-62
2022/04/25 15:20:09;;;;;;;0.10;0.10;;;;;;;;;;5070563;28;20074;-62
2022/04/25 15:22:34;;;;;;;1.08;0.82;;;;;;;;;;5072027;28;20024;-62